Time;durP1;ratioP1;P1;durP2;ratioP2;P2;SDS_P1;SDS_P2;PMS_P1;PMS_P2;Temp;Humidity;BMP_temperature;BMP_pressure;BME280_temperature;BME280_humidity;BME280_pressure;Samples;Min_cycle;Max_cycle;Signal;HPM_P1;HPM_P2
2022/07/10 00:00:26;;;;;;;3.25;2.08;;;22.70;92.90;;;;;;5014012;28;20030;-83
2022/07/10 00:02:52;;;;;;;3.30;1.50;;;22.70;92.90;;;;;;5016356;28;20030;-83
2022/07/10 00:05:18;;;;;;;5.45;2.17;;;22.70;92.90;;;;;;5001281;28;20029;-83
2022/07/10 00:07:45;;;;;;;1.98;1.67;;;22.70;92.90;;;;;;5015406;28;20143;-83
2022/07/10 00:10:11;;;;;;;3.47;1.83;;;22.70;92.90;;;;;;5025600;28;20441;-83
2022/07/10 00:12:37;;;;;;;2.45;1.50;;;22.70;93.00;;;;;;5000744;28;20022;-83
2022/07/10 00:15:06;;;;;;;2.50;1.67;;;22.70;92.90;;;;;;4998969;28;20046;-83
2022/07/10 00:17:33;;;;;;;4.22;1.80;;;22.70;92.90;;;;;;5007733;28;20018;-83
2022/07/10 00:19:59;;;;;;;3.15;1.70;;;22.70;92.90;;;;;;4995391;28;20026;-84
2022/07/10 00:22:25;;;;;;;3.83;1.90;;;22.70;92.90;;;;;;5017855;28;20357;-83
2022/07/10 00:24:51;;;;;;;3.38;1.52;;;22.70;92.90;;;;;;5017745;28;20033;-83
2022/07/10 00:27:19;;;;;;;4.45;1.70;;;22.70;93.00;;;;;;4995197;28;20494;-83
2022/07/10 00:29:45;;;;;;;2.58;1.70;;;22.60;93.00;;;;;;4995604;28;20156;-83
2022/07/10 00:32:11;;;;;;;5.38;1.98;;;22.70;93.00;;;;;;4995239;28;20173;-83
2022/07/10 00:34:37;;;;;;;2.10;1.60;;;22.60;93.00;;;;;;5000800;28;20124;-83
2022/07/10 00:37:04;;;;;;;2.30;1.67;;;22.70;93.10;;;;;;4995605;28;20504;-83
2022/07/10 00:39:30;;;;;;;2.55;1.80;;;22.60;93.00;;;;;;4995903;28;20053;-83
2022/07/10 00:42:06;;;;;;;3.92;1.58;;;22.60;93.00;;;;;;4989550;28;20113;-83
2022/07/10 00:44:32;;;;;;;1.70;1.35;;;22.60;93.10;;;;;;4994812;28;20033;-83
2022/07/10 00:46:57;;;;;;;2.10;1.70;;;22.60;93.00;;;;;;5001649;28;20030;-83
2022/07/10 00:49:23;;;;;;;2.70;1.60;;;22.60;93.00;;;;;;5000326;28;20124;-83
2022/07/10 00:51:49;;;;;;;3.70;2.22;;;22.60;93.10;;;;;;5009503;28;20026;-83
2022/07/10 00:54:16;;;;;;;3.28;1.60;;;22.60;93.00;;;;;;4995537;28;20026;-83
2022/07/10 00:56:42;;;;;;;2.45;1.67;;;22.60;93.10;;;;;;5005098;28;20377;-83
2022/07/10 00:59:09;;;;;;;2.67;1.45;;;22.60;93.10;;;;;;5001099;28;20032;-83
2022/07/10 01:01:36;;;;;;;4.47;1.55;;;22.60;93.10;;;;;;4995228;28;20026;-83
2022/07/10 01:04:02;;;;;;;2.65;1.65;;;22.60;93.20;;;;;;5007813;28;20364;-83
2022/07/10 01:06:27;;;;;;;4.05;1.75;;;22.60;93.20;;;;;;5014757;28;20112;-83
2022/07/10 01:08:54;;;;;;;4.03;1.50;;;22.50;93.10;;;;;;5000209;28;20137;-83
2022/07/10 01:11:21;;;;;;;3.55;1.70;;;22.50;93.20;;;;;;4995096;28;20037;-83
2022/07/10 01:13:46;;;;;;;2.03;1.70;;;22.50;93.20;;;;;;5023757;28;20049;-83
2022/07/10 01:16:13;;;;;;;5.30;1.60;;;22.50;93.20;;;;;;5007118;28;20069;-83
2022/07/10 01:18:39;;;;;;;3.40;1.65;;;22.50;93.20;;;;;;5012477;28;20026;-83
2022/07/10 01:21:05;;;;;;;2.58;1.60;;;22.50;93.30;;;;;;5008220;28;20543;-82
2022/07/10 01:23:31;;;;;;;5.65;1.58;;;22.50;93.30;;;;;;5024451;28;20061;-83
2022/07/10 01:25:57;;;;;;;1.90;1.45;;;22.50;93.30;;;;;;5003073;28;20053;-83
2022/07/10 01:28:22;;;;;;;2.83;1.60;;;22.50;93.30;;;;;;5014994;28;20500;-83
2022/07/10 01:30:49;;;;;;;4.38;1.40;;;22.50;93.30;;;;;;5002851;28;20474;-83
2022/07/10 01:33:15;;;;;;;4.00;1.60;;;22.40;93.20;;;;;;5000856;28;20408;-83
2022/07/10 01:35:41;;;;;;;2.92;1.58;;;22.40;93.20;;;;;;5017245;28;20025;-83
2022/07/10 01:38:07;;;;;;;2.35;1.55;;;22.40;93.30;;;;;;5011518;28;20026;-83
2022/07/10 01:40:33;;;;;;;3.00;1.50;;;22.40;93.30;;;;;;5017683;28;20057;-83
2022/07/10 01:42:59;;;;;;;3.65;1.65;;;22.40;93.30;;;;;;4998111;28;20026;-83
2022/07/10 01:45:25;;;;;;;2.05;1.50;;;22.40;93.30;;;;;;5015872;28;20076;-83
2022/07/10 01:47:50;;;;;;;2.63;1.48;;;22.40;93.30;;;;;;5003665;28;20121;-83
2022/07/10 01:50:16;;;;;;;2.33;1.35;;;22.40;93.30;;;;;;5015972;28;20061;-83
2022/07/10 01:52:42;;;;;;;2.80;1.80;;;22.40;93.30;;;;;;5013000;28;20144;-83
2022/07/10 01:55:08;;;;;;;4.97;1.55;;;22.40;93.30;;;;;;5017419;28;20089;-83
2022/07/10 01:57:34;;;;;;;5.55;1.80;;;22.40;93.40;;;;;;4997931;28;20030;-83
2022/07/10 02:00:00;;;;;;;2.05;1.45;;;22.40;93.40;;;;;;4999489;28;20033;-83
2022/07/10 02:02:26;;;;;;;3.13;1.50;;;22.40;93.40;;;;;;5006784;28;20114;-83
2022/07/10 02:04:51;;;;;;;3.65;1.80;;;22.40;93.40;;;;;;4997916;28;20022;-83
2022/07/10 02:07:21;;;;;;;3.67;1.63;;;22.40;93.40;;;;;;4997558;28;20176;-83
2022/07/10 02:09:46;;;;;;;2.75;1.60;;;22.40;93.50;;;;;;5024508;28;20326;-83
2022/07/10 02:12:14;;;;;;;3.15;1.40;;;22.30;93.40;;;;;;5008222;28;20026;-83
2022/07/10 02:14:40;;;;;;;2.63;1.60;;;22.40;93.50;;;;;;5009669;28;20045;-83
2022/07/10 02:17:07;;;;;;;2.95;1.70;;;22.30;93.50;;;;;;5003280;28;20029;-83
2022/07/10 02:19:33;;;;;;;3.10;1.70;;;22.30;93.50;;;;;;5006633;28;20026;-83
2022/07/10 02:21:59;;;;;;;2.65;1.83;;;22.30;93.50;;;;;;5015251;28;20029;-83
2022/07/10 02:24:24;;;;;;;2.47;1.77;;;22.30;93.50;;;;;;5024211;28;20045;-83
2022/07/10 02:26:51;;;;;;;2.80;1.90;;;22.30;93.60;;;;;;5004720;28;20061;-83
2022/07/10 02:29:17;;;;;;;3.25;2.00;;;22.30;93.60;;;;;;4997349;28;20080;-83
2022/07/10 02:31:43;;;;;;;5.47;1.90;;;22.30;94.00;;;;;;5002497;28;20030;-83
2022/07/10 02:34:10;;;;;;;2.10;1.52;;;22.30;93.70;;;;;;4999436;28;20370;-83
2022/07/10 02:36:38;;;;;;;2.90;1.95;;;22.20;93.60;;;;;;4997289;28;20033;-83
2022/07/10 02:39:06;;;;;;;2.47;1.85;;;22.30;93.70;;;;;;5000045;28;20469;-83
2022/07/10 02:41:32;;;;;;;2.95;1.80;;;22.20;93.60;;;;;;5013278;28;20037;-83
2022/07/10 02:43:58;;;;;;;2.63;1.80;;;22.20;93.70;;;;;;5012744;28;20036;-83
2022/07/10 02:46:25;;;;;;;4.75;2.08;;;22.20;94.10;;;;;;5012848;28;20031;-83
2022/07/10 02:48:50;;;;;;;3.58;2.00;;;22.20;93.80;;;;;;5003453;28;20038;-83
2022/07/10 02:51:16;;;;;;;4.50;2.03;;;22.30;93.90;;;;;;5018239;28;20038;-83
2022/07/10 02:53:42;;;;;;;2.78;2.20;;;22.20;94.00;;;;;;5002196;28;20026;-83
2022/07/10 02:56:07;;;;;;;3.00;2.10;;;22.20;94.10;;;;;;5000756;28;20033;-83
2022/07/10 02:58:33;;;;;;;3.40;2.40;;;22.20;94.20;;;;;;5005069;28;20025;-83
2022/07/10 03:00:59;;;;;;;3.00;2.47;;;22.20;94.30;;;;;;5010827;28;20028;-83
2022/07/10 03:03:25;;;;;;;4.15;2.30;;;22.20;94.30;;;;;;4997532;28;20116;-83
2022/07/10 03:05:51;;;;;;;3.70;2.58;;;22.20;94.40;;;;;;4996474;28;20036;-83
2022/07/10 03:08:17;;;;;;;4.00;2.72;;;22.20;94.30;;;;;;5000195;28;20436;-83
2022/07/10 03:10:42;;;;;;;4.18;2.42;;;22.20;94.40;;;;;;4996576;28;20038;-83
2022/07/10 03:13:08;;;;;;;3.28;2.45;;;22.20;94.50;;;;;;4996212;28;20034;-83
2022/07/10 03:15:33;;;;;;;4.88;2.80;;;22.20;94.60;;;;;;5033732;28;20081;-83
2022/07/10 03:17:59;;;;;;;3.95;2.35;;;22.20;94.50;;;;;;4997795;28;20030;-83
2022/07/10 03:20:25;;;;;;;3.95;2.50;;;22.20;94.50;;;;;;4996378;28;20038;-83
2022/07/10 03:22:51;;;;;;;5.00;2.53;;;22.20;94.50;;;;;;5013841;28;20029;-83
2022/07/10 03:25:17;;;;;;;4.00;2.40;;;22.20;94.60;;;;;;4996462;28;20125;-83
2022/07/10 03:27:42;;;;;;;3.33;2.53;;;22.10;94.60;;;;;;5000199;28;20117;-83
2022/07/10 03:30:09;;;;;;;3.58;2.70;;;22.20;94.70;;;;;;5014092;28;20473;-83
2022/07/10 03:32:34;;;;;;;3.53;2.38;;;22.10;95.00;;;;;;4995770;28;20433;-83
2022/07/10 03:35:00;;;;;;;3.33;2.50;;;22.10;94.70;;;;;;4995996;28;20057;-83
2022/07/10 03:37:26;;;;;;;4.07;2.90;;;22.10;94.70;;;;;;4996594;28;20026;-83
2022/07/10 03:39:51;;;;;;;2.83;2.40;;;22.10;94.70;;;;;;4995927;28;20034;-83
2022/07/10 03:42:17;;;;;;;3.67;2.10;;;22.10;94.70;;;;;;4996064;28;20552;-83
2022/07/10 03:44:43;;;;;;;4.97;2.47;;;22.10;94.60;;;;;;4998474;28;20045;-83
2022/07/10 03:47:09;;;;;;;3.35;2.60;;;22.10;94.70;;;;;;5001360;28;20060;-83
2022/07/10 03:49:35;;;;;;;3.83;2.30;;;22.10;94.70;;;;;;5017607;28;20034;-83
2022/07/10 03:52:03;;;;;;;4.28;2.70;;;22.10;94.80;;;;;;5013550;28;20052;-83
2022/07/10 03:54:30;;;;;;;3.95;2.70;;;22.10;94.80;;;;;;4995636;28;20022;-83
2022/07/10 03:59:41;;;;;;;3.25;2.28;;;22.10;94.90;;;;;;5013710;28;20037;-83
2022/07/10 04:02:06;;;;;;;2.90;2.33;;;22.00;94.80;;;;;;5013507;28;20389;-83
2022/07/10 04:04:32;;;;;;;3.42;2.40;;;22.10;94.80;;;;;;5013196;28;20361;-83
2022/07/10 04:06:58;;;;;;;3.65;2.03;;;22.00;94.80;;;;;;4995972;28;20030;-83
2022/07/10 04:09:24;;;;;;;5.05;2.47;;;22.00;94.80;;;;;;5013379;28;20065;-83
2022/07/10 04:11:50;;;;;;;7.75;2.60;;;22.00;94.90;;;;;;4995554;28;20489;-83
2022/07/10 04:14:15;;;;;;;4.28;2.40;;;22.00;94.80;;;;;;4997498;28;20042;-83
2022/07/10 04:16:41;;;;;;;5.18;2.33;;;22.00;94.80;;;;;;4995790;28;20030;-83
2022/07/10 04:19:07;;;;;;;4.50;2.00;;;22.00;94.90;;;;;;5005194;28;20030;-84
2022/07/10 04:21:33;;;;;;;6.47;2.42;;;22.10;94.90;;;;;;4995643;28;20034;-83
2022/07/10 04:23:58;;;;;;;7.25;2.53;;;22.00;94.90;;;;;;4995697;28;20081;-83
2022/07/10 04:26:24;;;;;;;3.70;2.33;;;22.00;94.90;;;;;;4995341;28;20121;-83
2022/07/10 04:28:50;;;;;;;3.33;1.90;;;22.00;94.80;;;;;;5001961;28;20030;-83
2022/07/10 04:31:15;;;;;;;3.45;2.15;;;22.00;94.80;;;;;;5012947;28;20026;-83
2022/07/10 04:33:41;;;;;;;3.53;2.03;;;22.00;94.80;;;;;;4995532;28;20075;-83
2022/07/10 04:36:07;;;;;;;3.58;2.20;;;22.00;94.80;;;;;;4995494;28;20493;-83
2022/07/10 04:38:33;;;;;;;4.82;2.05;;;22.00;94.90;;;;;;5025692;28;20030;-83
2022/07/10 04:40:59;;;;;;;3.30;1.80;;;22.00;94.80;;;;;;5029510;28;20033;-83
2022/07/10 04:43:24;;;;;;;3.30;2.10;;;22.00;94.90;;;;;;4995212;28;20029;-83
2022/07/10 04:45:50;;;;;;;4.28;2.30;;;22.00;94.80;;;;;;5012655;28;20036;-83
2022/07/10 04:48:16;;;;;;;3.13;2.20;;;22.00;94.80;;;;;;5014980;28;20104;-83
2022/07/10 04:50:41;;;;;;;4.32;2.20;;;22.00;94.80;;;;;;4995300;28;20026;-83
2022/07/10 04:53:07;;;;;;;2.72;1.88;;;22.00;94.80;;;;;;4995570;28;20056;-83
2022/07/10 04:55:33;;;;;;;3.50;1.88;;;22.00;94.80;;;;;;4995175;28;20072;-83
2022/07/10 04:57:58;;;;;;;3.45;1.95;;;22.00;94.70;;;;;;5024843;28;20025;-83
2022/07/10 05:00:24;;;;;;;6.88;1.98;;;22.00;94.70;;;;;;4998877;28;20033;-83
2022/07/10 05:02:50;;;;;;;2.85;1.83;;;22.00;94.60;;;;;;4998558;28;20060;-83
2022/07/10 05:05:15;;;;;;;4.28;1.80;;;22.00;94.60;;;;;;4999040;28;20520;-83
2022/07/10 05:07:41;;;;;;;3.28;1.77;;;22.00;94.60;;;;;;5013187;28;20155;-83
2022/07/10 05:10:07;;;;;;;2.92;1.70;;;21.90;94.50;;;;;;5011382;28;20034;-84
2022/07/10 05:12:33;;;;;;;3.15;2.10;;;22.00;94.60;;;;;;4999122;28;20076;-83
2022/07/10 05:14:59;;;;;;;4.32;1.95;;;22.00;94.50;;;;;;5028831;28;20432;-83
2022/07/10 05:17:26;;;;;;;2.38;1.70;;;21.90;94.50;;;;;;5005517;28;20029;-83
2022/07/10 05:19:53;;;;;;;3.38;1.80;;;22.00;94.50;;;;;;5015231;28;20030;-83
2022/07/10 05:22:19;;;;;;;2.28;1.55;;;21.90;94.40;;;;;;4998614;28;20033;-83
2022/07/10 05:24:44;;;;;;;4.97;1.85;;;21.90;94.40;;;;;;5016401;28;20389;-84
2022/07/10 05:27:10;;;;;;;3.80;1.75;;;21.90;94.30;;;;;;5002042;28;20025;-83
2022/07/10 05:29:36;;;;;;;4.05;1.80;;;21.90;94.30;;;;;;5005937;28;20129;-84
2022/07/10 05:32:02;;;;;;;2.50;1.60;;;21.90;94.30;;;;;;4999007;28;20137;-84
2022/07/10 05:34:28;;;;;;;1.95;1.50;;;21.90;94.30;;;;;;5001305;28;20022;-83
2022/07/10 05:36:53;;;;;;;4.75;1.98;;;21.90;94.30;;;;;;5007070;28;20371;-84
2022/07/10 05:39:19;;;;;;;1.92;1.42;;;21.90;94.30;;;;;;5003333;28;20525;-84
2022/07/10 05:41:45;;;;;;;2.67;1.70;;;21.90;94.20;;;;;;4999156;28;20040;-84
2022/07/10 05:44:10;;;;;;;5.43;1.70;;;21.90;94.20;;;;;;5004700;28;20089;-84
2022/07/10 05:46:36;;;;;;;2.75;1.80;;;21.90;94.20;;;;;;5017190;28;20058;-83
2022/07/10 05:49:02;;;;;;;4.72;1.70;;;21.90;94.20;;;;;;5002286;28;20464;-83
2022/07/10 05:51:27;;;;;;;2.97;1.50;;;21.90;94.10;;;;;;5004649;28;20072;-83
2022/07/10 05:53:53;;;;;;;3.10;1.65;;;22.00;94.10;;;;;;4997827;28;20045;-84
2022/07/10 05:56:19;;;;;;;2.47;1.55;;;22.00;94.10;;;;;;5004277;28;20029;-83
2022/07/10 05:58:44;;;;;;;4.18;1.67;;;22.10;94.00;;;;;;4997936;28;20029;-84
2022/07/10 06:01:10;;;;;;;1.92;1.35;;;22.10;94.00;;;;;;4997669;28;20026;-84
2022/07/10 06:03:36;;;;;;;2.60;1.60;;;22.10;93.90;;;;;;4998172;28;20474;-83
2022/07/10 06:06:01;;;;;;;3.92;1.50;;;22.00;93.90;;;;;;4997330;28;20026;-83
2022/07/10 06:08:27;;;;;;;2.67;1.30;;;22.10;94.30;;;;;;5016223;28;20091;-83
2022/07/10 06:10:53;;;;;;;2.45;1.60;;;22.00;93.90;;;;;;5003106;28;20061;-83
2022/07/10 06:13:18;;;;;;;2.22;1.30;;;22.10;93.90;;;;;;5000850;28;20057;-84
2022/07/10 06:15:44;;;;;;;2.45;1.48;;;22.10;93.90;;;;;;5000959;28;20052;-84
2022/07/10 06:18:10;;;;;;;2.17;1.45;;;22.00;93.80;;;;;;5000675;28;20034;-83
2022/07/10 06:20:35;;;;;;;4.28;1.85;;;22.00;93.80;;;;;;4997311;28;20029;-84
2022/07/10 06:23:01;;;;;;;2.05;1.40;;;22.00;93.80;;;;;;4997634;28;20025;-83
2022/07/10 06:25:27;;;;;;;4.35;1.42;;;22.10;93.70;;;;;;4998852;28;20041;-84
2022/07/10 06:27:53;;;;;;;2.13;1.38;;;22.00;93.70;;;;;;5010091;28;20029;-84
2022/07/10 06:30:19;;;;;;;2.80;1.30;;;22.00;93.70;;;;;;5014984;28;20080;-83
2022/07/10 06:32:44;;;;;;;3.28;1.15;;;22.00;93.60;;;;;;4997265;28;20489;-83
2022/07/10 06:35:10;;;;;;;2.58;1.35;;;22.10;93.60;;;;;;5017887;28;20084;-83
2022/07/10 06:37:36;;;;;;;5.22;1.27;;;22.10;93.50;;;;;;5006165;28;20026;-83
2022/07/10 06:40:02;;;;;;;2.20;1.17;;;22.10;93.50;;;;;;4997934;28;20359;-83
2022/07/10 06:42:28;;;;;;;2.65;1.30;;;22.10;93.50;;;;;;5011001;28;20040;-83
2022/07/10 06:44:54;;;;;;;2.33;1.27;;;22.10;93.40;;;;;;5001428;28;20405;-83
2022/07/10 06:50:08;;;;;;;3.63;1.20;;;22.10;93.30;;;;;;5020338;28;20029;-83
2022/07/10 06:52:35;;;;;;;3.00;1.30;;;22.20;93.30;;;;;;5011094;28;20527;-84
2022/07/10 06:55:05;;;;;;;2.47;1.25;;;22.20;93.50;;;;;;4996926;28;20033;-83
2022/07/10 06:57:31;;;;;;;3.38;1.50;;;22.20;93.10;;;;;;5014285;28;20026;-83
2022/07/10 06:59:56;;;;;;;3.22;1.30;;;22.20;93.00;;;;;;5003205;28;20018;-83
2022/07/10 07:02:22;;;;;;;2.78;1.60;;;22.30;93.00;;;;;;5001487;28;20025;-84
2022/07/10 07:04:48;;;;;;;3.80;1.40;;;22.20;93.00;;;;;;5006822;28;20452;-83
2022/07/10 07:07:14;;;;;;;3.13;1.25;;;22.20;92.90;;;;;;4999682;28;20076;-83
2022/07/10 07:09:42;;;;;;;2.88;1.27;;;22.20;92.90;;;;;;5014158;28;20100;-83
2022/07/10 07:12:08;;;;;;;3.13;1.30;;;22.20;92.80;;;;;;4996207;28;20030;-84
2022/07/10 07:14:33;;;;;;;1.83;1.02;;;22.20;92.80;;;;;;5007033;28;20041;-83
2022/07/10 07:17:10;;;;;;;2.90;1.20;;;22.20;92.80;;;;;;4997007;28;20037;-84
2022/07/10 07:25:07;;;;;;;2.78;1.10;;;22.10;92.70;;;;;;5011343;28;20045;-84
2022/07/10 07:27:34;;;;;;;5.07;1.27;;;22.10;92.80;;;;;;4991791;28;20473;-84
2022/07/10 07:30:10;;;;;;;2.55;1.20;;;22.20;92.70;;;;;;4988316;28;20025;-83
2022/07/10 07:32:37;;;;;;;2.33;1.20;;;22.10;92.70;;;;;;5007082;28;20057;-83
2022/07/10 07:35:03;;;;;;;3.80;1.20;;;22.20;92.60;;;;;;4997293;28;20504;-83
2022/07/10 07:37:37;;;;;;;2.50;1.13;;;22.20;92.50;;;;;;4997985;28;20108;-83
2022/07/10 07:40:07;;;;;;;3.92;1.20;;;22.20;92.30;;;;;;4996765;28;20034;-83
2022/07/10 07:42:33;;;;;;;3.35;1.63;;;22.20;92.30;;;;;;5017944;28;20033;-83
2022/07/10 07:44:59;;;;;;;2.00;1.02;;;22.20;92.20;;;;;;4995980;28;20112;-83
2022/07/10 07:47:25;;;;;;;5.35;1.40;;;22.30;92.30;;;;;;5014545;28;20049;-83
2022/07/10 07:49:51;;;;;;;2.65;1.15;;;22.30;92.10;;;;;;5013367;28;20030;-83
2022/07/10 07:52:16;;;;;;;2.15;0.98;;;22.30;92.10;;;;;;4996428;28;20025;-83
2022/07/10 07:54:42;;;;;;;2.72;1.10;;;22.40;92.00;;;;;;5009777;28;20028;-83
2022/07/10 07:57:08;;;;;;;2.28;0.88;;;22.40;91.90;;;;;;4998192;28;20459;-83
2022/07/10 07:59:34;;;;;;;2.08;1.20;;;22.40;91.90;;;;;;5018547;28;20084;-83
2022/07/10 08:02:00;;;;;;;2.70;1.33;;;22.40;91.80;;;;;;4988425;28;20068;-83
2022/07/10 08:04:26;;;;;;;2.83;1.10;;;22.40;91.80;;;;;;5013079;28;20138;-83
2022/07/10 08:06:53;;;;;;;2.92;1.20;;;22.40;91.80;;;;;;4995225;28;20053;-83
2022/07/10 08:09:19;;;;;;;2.92;1.30;;;22.40;91.80;;;;;;4998296;28;20489;-83
2022/07/10 08:11:45;;;;;;;3.17;1.25;;;22.50;91.60;;;;;;5013329;28;20040;-83
2022/07/10 08:14:11;;;;;;;3.20;1.20;;;22.50;91.70;;;;;;5009535;28;20034;-83
2022/07/10 08:16:37;;;;;;;3.75;1.08;;;22.50;91.60;;;;;;5007315;28;20022;-83
2022/07/10 08:19:03;;;;;;;3.17;1.00;;;22.50;91.60;;;;;;5020982;28;20018;-83
2022/07/10 08:21:30;;;;;;;3.92;1.20;;;22.50;91.50;;;;;;5007722;28;20410;-82
2022/07/10 08:23:55;;;;;;;3.22;1.00;;;22.50;91.50;;;;;;5000188;28;20033;-83
2022/07/10 08:26:21;;;;;;;3.33;1.20;;;22.60;91.50;;;;;;4994947;28;20049;-83
2022/07/10 08:28:47;;;;;;;4.00;1.00;;;22.60;91.40;;;;;;5013364;28;20072;-83
2022/07/10 08:31:13;;;;;;;3.95;1.20;;;22.60;91.30;;;;;;4990239;28;20034;-83
2022/07/10 08:33:38;;;;;;;3.72;1.33;;;22.60;91.30;;;;;;4996324;28;20037;-83
2022/07/10 08:36:04;;;;;;;2.75;0.90;;;22.60;91.30;;;;;;4997874;28;20117;-83
2022/07/10 08:38:30;;;;;;;4.32;1.10;;;22.70;91.30;;;;;;5017119;28;20405;-83
2022/07/10 08:40:57;;;;;;;2.80;1.10;;;22.70;91.30;;;;;;5017022;28;20165;-83
2022/07/10 08:43:24;;;;;;;3.33;1.00;;;22.70;91.30;;;;;;4996872;28;20527;-83
2022/07/10 08:45:53;;;;;;;3.53;1.00;;;22.70;91.20;;;;;;5006474;28;20045;-83
2022/07/10 08:48:23;;;;;;;2.95;1.10;;;22.70;91.20;;;;;;5014972;28;20026;-83
2022/07/10 08:50:53;;;;;;;3.00;1.10;;;22.70;91.10;;;;;;4995469;28;20380;-83
2022/07/10 08:53:29;;;;;;;3.63;1.13;;;22.70;91.10;;;;;;5011169;28;20029;-83
2022/07/10 08:55:55;;;;;;;2.40;1.00;;;22.70;91.10;;;;;;5002445;28;20041;-84
2022/07/10 08:58:22;;;;;;;5.93;1.40;;;22.70;91.10;;;;;;4995168;28;20030;-84
2022/07/10 09:00:48;;;;;;;2.30;0.93;;;22.70;91.00;;;;;;5003245;28;20026;-83
2022/07/10 09:03:14;;;;;;;2.92;1.15;;;22.70;91.00;;;;;;4999547;28;20544;-83
2022/07/10 09:05:39;;;;;;;4.47;1.35;;;22.70;91.00;;;;;;4996607;28;20101;-83
2022/07/10 09:08:32;;;;;;;1.95;0.95;;;22.70;91.10;;;;;;4999766;28;20040;-83
2022/07/10 09:11:18;;;;;;;3.53;0.98;;;22.70;91.10;;;;;;4996509;28;20120;-83
2022/07/10 09:13:51;;;;;;;1.85;1.05;;;22.70;91.10;;;;;;5015720;28;20373;-83
2022/07/10 09:16:28;;;;;;;2.97;1.20;;;22.80;91.00;;;;;;4996415;28;20042;-83
2022/07/10 09:18:55;;;;;;;2.47;1.10;;;22.80;91.00;;;;;;4998151;28;20036;-83
2022/07/10 09:21:22;;;;;;;3.30;1.20;;;22.80;91.00;;;;;;5005902;28;20080;-83
2022/07/10 09:23:48;;;;;;;2.60;1.15;;;22.90;90.90;;;;;;4999055;28;20113;-83
2022/07/10 09:26:15;;;;;;;4.20;1.30;;;22.90;90.80;;;;;;4995365;28;20393;-83
2022/07/10 09:28:40;;;;;;;2.15;1.10;;;22.90;90.70;;;;;;5002019;28;20026;-83
2022/07/10 09:31:06;;;;;;;3.90;0.90;;;22.90;90.80;;;;;;5017746;28;20432;-83
2022/07/10 09:33:34;;;;;;;3.60;1.00;;;22.90;90.80;;;;;;5001347;28;20477;-83
2022/07/10 09:36:07;;;;;;;3.70;0.88;;;22.90;90.90;;;;;;5006412;28;20113;-83
2022/07/10 09:38:42;;;;;;;2.47;0.80;;;22.90;90.80;;;;;;4996927;28;20034;-83
2022/07/10 09:41:17;;;;;;;5.05;1.10;;;22.90;90.70;;;;;;5008311;28;20083;-83
2022/07/10 09:43:51;;;;;;;2.17;1.10;;;22.90;90.70;;;;;;5012760;28;20100;-83
2022/07/10 09:46:22;;;;;;;4.80;1.38;;;22.90;90.70;;;;;;5014936;28;20030;-82
2022/07/10 09:48:59;;;;;;;3.03;0.93;;;22.90;90.70;;;;;;5010582;28;20026;-83
2022/07/10 09:51:26;;;;;;;2.60;1.40;;;22.90;90.70;;;;;;5009373;28;20030;-83
2022/07/10 09:53:52;;;;;;;2.50;1.02;;;22.90;90.70;;;;;;5021138;28;20022;-84
2022/07/10 09:56:18;;;;;;;3.05;1.10;;;22.90;90.60;;;;;;5018655;28;20073;-83
2022/07/10 09:58:50;;;;;;;2.45;1.05;;;22.90;90.60;;;;;;5002129;28;20524;-83
2022/07/10 10:01:17;;;;;;;3.38;1.10;;;22.90;90.60;;;;;;4996660;28;20057;-83
2022/07/10 10:03:45;;;;;;;2.47;1.10;;;22.90;90.60;;;;;;5003980;28;20022;-83
2022/07/10 10:06:14;;;;;;;3.33;1.00;;;22.90;90.60;;;;;;5006460;28;20026;-83
2022/07/10 10:08:52;;;;;;;2.80;0.95;;;22.80;90.60;;;;;;4998422;28;20034;-83
2022/07/10 10:11:22;;;;;;;4.35;1.23;;;22.80;90.50;;;;;;5022777;28;20092;-83
2022/07/10 10:13:50;;;;;;;2.72;1.13;;;22.80;90.50;;;;;;4997288;28;20046;-83
2022/07/10 10:16:15;;;;;;;3.90;1.25;;;22.80;90.50;;;;;;4997767;28;20572;-82
2022/07/10 10:21:28;;;;;;;3.10;1.10;;;22.90;90.50;;;;;;5014885;28;20415;-83
2022/07/10 10:23:57;;;;;;;3.88;1.15;;;22.90;90.40;;;;;;4999459;28;20151;-83
2022/07/10 10:26:24;;;;;;;4.15;1.13;;;22.90;90.30;;;;;;5016011;28;20053;-83
2022/07/10 10:28:56;;;;;;;2.75;1.00;;;22.90;90.20;;;;;;4986371;28;20025;-83
2022/07/10 10:31:23;;;;;;;3.33;0.93;;;22.90;90.30;;;;;;5014736;28;20401;-82
2022/07/10 10:33:51;;;;;;;1.75;0.80;;;22.90;90.20;;;;;;4997315;28;20053;-83
2022/07/10 10:36:54;;;;;;;4.40;1.10;;;22.90;90.20;;;;;;4995396;28;20081;-83
2022/07/10 10:39:20;;;;;;;2.15;0.85;;;22.90;90.30;;;;;;5013576;28;20057;-83
2022/07/10 10:41:53;;;;;;;2.47;1.05;;;23.00;90.20;;;;;;5014795;28;20022;-83
2022/07/10 10:44:20;;;;;;;3.47;1.15;;;23.00;90.20;;;;;;5000921;28;20038;-82
2022/07/10 10:47:02;;;;;;;2.33;0.90;;;23.00;90.00;;;;;;5013578;28;20057;-83
2022/07/10 10:49:48;;;;;;;3.50;0.95;;;23.10;90.10;;;;;;4996986;28;20377;-83
2022/07/10 10:52:15;;;;;;;2.40;1.00;;;23.10;90.00;;;;;;4990668;28;20042;-83
2022/07/10 10:54:56;;;;;;;2.28;0.95;;;23.10;89.90;;;;;;4996438;28;20026;-83
2022/07/10 10:57:39;;;;;;;2.53;1.00;;;23.10;89.80;;;;;;5010614;28;20503;-83
2022/07/10 11:00:07;;;;;;;2.65;1.10;;;23.10;89.70;;;;;;5001585;28;20468;-83
2022/07/10 11:02:36;;;;;;;2.60;1.20;;;23.10;89.70;;;;;;4990341;28;20026;-82
2022/07/10 11:05:14;;;;;;;6.53;1.00;;;23.10;89.50;;;;;;5008315;28;20075;-83
2022/07/10 11:07:55;;;;;;;2.13;1.00;;;23.10;89.70;;;;;;4998052;28;20545;-83
2022/07/10 11:10:28;;;;;;;1.85;0.98;;;23.10;89.70;;;;;;4996229;28;20397;-83
2022/07/10 11:13:08;;;;;;;2.67;0.95;;;23.10;89.50;;;;;;4996420;28;20113;-82
2022/07/10 11:15:38;;;;;;;1.92;0.77;;;23.10;89.50;;;;;;5015890;28;20059;-83
2022/07/10 11:18:07;;;;;;;4.32;0.98;;;23.10;89.60;;;;;;5021955;28;20354;-83
2022/07/10 11:20:41;;;;;;;2.20;0.88;;;23.10;89.50;;;;;;5009038;28;20026;-83
2022/07/10 11:23:44;;;;;;;1.20;0.70;;;23.10;89.30;;;;;;4984334;28;20026;-82
2022/07/10 11:26:16;;;;;;;2.05;1.02;;;23.10;89.10;;;;;;4997347;28;20385;-83
2022/07/10 11:29:07;;;;;;;2.70;1.10;;;23.10;89.00;;;;;;5004973;28;20033;-83
2022/07/10 11:31:44;;;;;;;2.30;0.75;;;23.10;89.00;;;;;;5013523;28;20029;-83
2022/07/10 11:34:10;;;;;;;6.95;1.05;;;23.20;88.70;;;;;;5018778;28;20058;-82
2022/07/10 11:36:39;;;;;;;3.95;1.10;;;23.20;88.10;;;;;;4995260;28;20477;-83
2022/07/10 11:39:08;;;;;;;2.90;1.00;;;23.20;88.00;;;;;;4997954;28;20018;-83
2022/07/10 11:41:47;;;;;;;1.58;0.80;;;23.30;88.10;;;;;;5009687;28;20026;-83
2022/07/10 11:44:18;;;;;;;3.63;0.80;;;23.30;87.80;;;;;;4998393;28;20036;-83
2022/07/10 11:46:48;;;;;;;1.85;0.80;;;23.30;87.90;;;;;;4992810;28;20029;-83
2022/07/10 11:49:14;;;;;;;2.08;1.08;;;23.40;88.10;;;;;;5003331;28;20029;-83
2022/07/10 11:51:41;;;;;;;2.08;0.95;;;23.40;88.00;;;;;;4991555;28;20023;-82
2022/07/10 11:54:17;;;;;;;1.98;0.77;;;23.40;87.80;;;;;;4999691;28;20107;-83
2022/07/10 11:56:49;;;;;;;3.67;0.90;;;23.40;87.30;;;;;;5012904;28;20054;-83
2022/07/10 11:59:15;;;;;;;1.55;0.70;;;23.40;87.70;;;;;;5011602;28;20018;-82
2022/07/10 12:01:49;;;;;;;2.28;1.02;;;23.40;87.20;;;;;;5014380;28;20030;-82
2022/07/10 12:04:18;;;;;;;2.85;0.85;;;23.50;87.30;;;;;;4995422;28;20556;-83
2022/07/10 12:06:46;;;;;;;2.08;0.90;;;23.50;86.80;;;;;;5018596;28;20033;-83
2022/07/10 12:09:14;;;;;;;2.08;0.85;;;23.50;87.10;;;;;;4996134;28;20436;-83
2022/07/10 12:11:42;;;;;;;2.75;0.80;;;23.50;87.10;;;;;;4993154;28;20466;-83
2022/07/10 12:14:22;;;;;;;3.35;1.05;;;23.60;86.80;;;;;;4995383;28;20034;-83
2022/07/10 12:16:53;;;;;;;2.58;0.77;;;23.60;86.90;;;;;;5004936;28;20049;-82
2022/07/10 12:19:24;;;;;;;4.63;0.95;;;23.50;86.50;;;;;;5021297;28;20057;-83
2022/07/10 12:21:51;;;;;;;3.75;1.00;;;23.60;86.10;;;;;;5007135;28;20100;-82
2022/07/10 12:24:19;;;;;;;3.05;0.75;;;23.60;86.50;;;;;;5013257;28;20030;-83
2022/07/10 12:26:46;;;;;;;2.35;1.10;;;23.60;86.20;;;;;;5021715;28;20649;-83
2022/07/10 12:29:18;;;;;;;3.92;0.93;;;23.60;86.40;;;;;;4996279;28;20188;-83
2022/07/10 12:31:45;;;;;;;1.30;0.70;;;23.60;86.00;;;;;;5002924;28;20029;-83
2022/07/10 12:34:11;;;;;;;2.65;0.98;;;23.60;85.50;;;;;;5018684;28;20568;-83
2022/07/10 12:36:51;;;;;;;2.42;0.80;;;23.70;86.00;;;;;;4999629;28;20050;-84
2022/07/10 12:39:21;;;;;;;2.25;0.70;;;23.80;86.00;;;;;;5001233;28;20488;-83
2022/07/10 12:42:01;;;;;;;1.75;0.82;;;23.80;85.40;;;;;;4996686;28;20425;-83
2022/07/10 12:44:46;;;;;;;1.95;0.70;;;23.80;85.30;;;;;;5017156;28;20057;-83
2022/07/10 12:47:13;;;;;;;1.40;0.70;;;23.90;85.10;;;;;;4997782;28;20084;-83
2022/07/10 12:49:52;;;;;;;2.92;0.65;;;23.90;84.90;;;;;;5002106;28;20484;-83
2022/07/10 12:52:36;;;;;;;1.15;0.63;;;24.00;84.60;;;;;;5008111;28;20030;-83
2022/07/10 12:55:21;;;;;;;4.03;0.70;;;24.00;84.30;;;;;;5001047;28;20058;-83
2022/07/10 12:58:05;;;;;;;1.52;0.70;;;24.10;84.00;;;;;;4997515;28;20504;-83
2022/07/10 13:00:34;;;;;;;1.90;0.65;;;24.20;83.70;;;;;;4995915;28;20088;-83
2022/07/10 13:03:08;;;;;;;2.20;0.80;;;24.30;82.60;;;;;;5002277;28;20188;-83
2022/07/10 13:05:33;;;;;;;;;;;24.30;82.80;;;;;;5003995;28;20393;-83